Sonic Adventure (DX): Boss Rankings

Records: Times | Rings | Scores | Races | Bosses | Freestyle
Leaders: Times | Rings | Scores | Races | Bosses | Freestyle | Overall
Rank Player Percent Points Date
1 Sonicspeedruner 98.4% 32 02-16-17
2 Gamepro011 97.0% 62 02-16-17
3 Austinf 92.9% 149 02-16-17
4 DarkPolarNight 91.8% 172 02-16-17
5 Jawzun 89.8% 215 02-16-17
6 drminus 89.6% 220 02-16-17
7 Parax 87.8% 258 02-16-17
8 ike6252 87.3% 267 02-16-17
9 Dashjump 85.2% 313 02-16-17
10 Avento128bits 84.7% 322 02-16-17
11 Coolfansonic 84.1% 336 02-16-17
12 DarkspinesSonic 81.3% 394 02-16-17
13 THC98 79.1% 441 02-16-17
14 F-Man 77.1% 484 02-16-17
15 TheRealShadnic 76.6% 494 02-16-17
16 Marth 75.9% 509 02-16-17
17 yoshifan 74.2% 545 02-16-17
18 Mariobutch 74.0% 549 02-16-17
19 PfoSonic 73.0% 571 02-16-17
20 InferSaime 72.6% 579 02-16-17
21 HyperSonic7701 70.7% 618 02-16-17
22 RPGnutter 69.8% 638 02-16-17
23 Paragod 68.2% 671 02-16-17
24 mike89 67.8% 680 02-16-17
25 frankoredstrato 67.6% 685 02-16-17
26 sonicam 63.5% 772 02-16-17
27 Groudon199 63.3% 776 02-16-17
28 SadisticMystic 63.2% 778 02-16-17
29 xXMegaManXx 62.5% 792 02-16-17
30 Stefan 61.7% 809 02-16-17
31 Diamond 60.4% 837 02-16-17
32 Combo 58.1% 885 02-16-17
33 bertin 57.7% 893 02-16-17
34 SkyLights 54.9% 953 02-16-17
35 Arch 49.4% 1070 02-16-17
36 francisco 49.2% 1073 02-16-17
37 Fr3nZy 49.1% 1075 02-16-17
38 OmegaDJ 47.2% 1116 02-16-17
39 Andrea Ritsu 47.0% 1120 02-16-17
40 Omega Rafael Santos 45.9% 1144 02-16-17
41 P1 Pause 44.6% 1172 02-16-17
42 magnum12 42.2% 1221 02-16-17
43 VeritasDL 41.7% 1232 02-16-17
44 Auriman1 38.6% 1299 02-16-17
45 James_Bertolli 36.1% 1351 02-16-17
46 teamblackarms 34.4% 1386 02-16-17
47 Hunters13 34.1% 1393 02-16-17
48 FuzZerd 33.5% 1406 02-16-17
49 Drakodan 33.1% 1415 02-16-17
50 Psymar 32.5% 1427 02-16-17
51 Cyan Ryan 32.3% 1431 02-16-17
52 Quartz 32.2% 1434 02-16-17
53 eggFL 32.0% 1438 02-16-17
54 Jerzia 31.1% 1456 02-16-17
55 GerbilSoft 31.0% 1459 02-16-17
56 elecmouse101 30.5% 1469 02-16-17
57 Thorn 30.1% 1478 02-16-17
57 Webber3000 30.1% 1478 02-16-17
59 videogamemaster777 29.9% 1483 02-16-17
60 chaos shadow 29.5% 1491 02-16-17
61 Turbos 28.4% 1515 02-16-17
62 Mo Player Banned 28.3% 1516 02-16-17
63 Termon 27.2% 1539 02-16-17
64 Nimrod 26.7% 1549 02-16-17
65 Dave Cramer 26.4% 1557 02-16-17
66 Flying Fox 26.0% 1565 02-16-17
67 buddychaos0415 25.1% 1584 02-16-17
68 nuckrieg 25.0% 1585 02-16-17
69 Shadow Jacky 24.0% 1607 02-16-17
70 Cream147 21.5% 1660 02-16-17
71 supersonicfan 21.3% 1664 02-16-17
72 NintenDan 21.0% 1670 02-16-17
73 MiStEr_ShAoLiN 21.0% 1671 02-16-17
74 thewaytodawnnn 20.7% 1677 02-16-17
75 Aitamen 20.6% 1678 02-16-17
76 itsPersonnal 20.5% 1682 02-16-17
77 The T 20.3% 1686 02-16-17
78 supersonic465 20.1% 1690 02-16-17
79 Cybrax 20.0% 1691 02-16-17
80 SonicWinDX 19.5% 1702 02-16-17
81 Cruizer 18.9% 1715 02-16-17
82 VMU Player Banned 17.7% 1741 02-16-17
83 Game_Complete 17.2% 1752 02-16-17
84 The Great Lord Mick 16.7% 1761 02-16-17
85 Questionguy555 15.9% 1779 02-16-17
86 GreatStar 15.7% 1782 02-16-17
87 Spinballwizard 15.3% 1792 02-16-17
88 Sondow 14.6% 1806 02-16-17
89 sonicandamy Player Banned 14.2% 1814 02-16-17
90 Destroyer121121 13.9% 1821 02-16-17
91 GarnetPrincess 13.3% 1833 02-16-17
92 SonicAD 12.0% 1862 02-16-17
93 Don 11.4% 1874 02-16-17
94 Miles9999 11.2% 1878 02-16-17
95 Siavash Tazari 11.0% 1882 02-16-17
96 SuperBlitzCraig 11.0% 1883 02-16-17
97 BigAL49 10.3% 1898 02-16-17
98 Cutiefox 10.2% 1899 02-16-17
99 Psyknux 10.2% 1900 02-16-17
100 knuckles_sonic8 9.7% 1909 02-16-17
101 Werey 9.7% 1910 02-16-17
102 joecoolgames 9.4% 1915 02-16-17
103 mauserman 9.2% 1920 02-16-17
104 Badlex727 9.0% 1925 02-16-17
105 EngiNerd 8.9% 1926 02-16-17
106 Sonic Singularity 8.7% 1931 02-16-17
107 dShadow 8.5% 1935 02-16-17
108 Hipertails12 8.4% 1938 02-16-17
109 Aiko 8.2% 1942 02-16-17
110 Shanekilz 8.0% 1946 02-16-17
111 Therio 7.6% 1954 02-16-17
112 Mastakirby 7.4% 1958 02-16-17
113 TommyeAsY 7.0% 1967 02-16-17
114 chainchumper 6.9% 1968 02-16-17
115 FocusSight64 6.8% 1970 02-16-17
116 sonic29887 6.8% 1972 02-16-17
116 TheChaosEmeraIds 6.8% 1972 02-16-17
118 Chao_Fan 6.6% 1976 02-16-17
119 djmat 6.1% 1986 02-16-17
120 HHNNBBHHN 6.0% 1987 02-16-17
121 tal39h 5.9% 1991 02-16-17
122 paulie9990 5.8% 1992 02-16-17
123 Sogeking 5.4% 2001 02-16-17
124 Brian_pso 5.0% 2010 02-16-17
125 Chawkk 4.9% 2012 02-16-17
126 SilvertheAlmighty 4.5% 2019 02-16-17
127 MK 4.5% 2020 02-16-17
127 SpinDashMaster 4.5% 2020 02-16-17
129 MastaToken 4.1% 2029 02-16-17
130 Sonique Hedgehog 3.8% 2034 02-16-17
130 SpiritDragon1995 3.8% 2034 02-16-17
132 KinkyCadence 3.5% 2040 02-16-17
133 PsyBorg 3.4% 2043 02-16-17
134 Mad Andy 3.4% 2044 02-16-17
135 FSSRandomvids 3.3% 2046 02-16-17
136 koinu93 2.9% 2054 02-16-17
136 Rolken 2.9% 2054 02-16-17
138 Xia 2.8% 2056 02-16-17
139 andres430 2.5% 2061 02-16-17
140 dabestgamer 2.2% 2068 02-16-17
141 shadowblast63 Player Banned 2.2% 2069 02-16-17
142 crazy1993 2.1% 2070 02-16-17
143 Illidan 2.0% 2072 02-16-17
144 Richied 1.9% 2074 02-16-17
145 DanielTheFalcon 1.7% 2078 02-16-17
145 gamer1245 1.7% 2078 02-16-17
147 Iwannabelink 1.7% 2079 02-16-17
148 niscool 1.4% 2086 02-16-17
148 oTaiIilLsS 1.4% 2086 02-16-17
150 soniccoloursunleashed 1.3% 2087 02-16-17
151 Redd 1.1% 2092 02-16-17
152 ieatatsonic 1.0% 2093 02-16-17
153 LinksDarkArrows 0.8% 2098 02-16-17
154 Lil_Dude 0.8% 2099 02-16-17
155 Cbwade15 0.4% 2106 02-16-17
156 neaolas 0.3% 2108 02-16-17
157 BlankTH 0.2% 2111 02-16-17
158 Heroes_Hater 0.1% 2112 02-16-17
159 S-MS32X-S 0.0% 2114 02-16-17
160 KaM Mark MaK 0.0% 2116 02-16-17
160 MegabombBlade 0.0% 2116 02-16-17

This page is using the New Data Table System. [FUTURE]

Game ID: 3 | Category ID: 6
Hits: 4,437 | Hits This Month: 9 | DB Calls: 24 | Mem Usage: 5.35 MB | Time: 0.07s | Printable

The Sonic Center v3.9 Hax in Progress
Copyright 2003-2011 by The Sonic Center Team.